sensor_id;sensor_type;location;lat;lon;timestamp;temperature;humidity
4828;DHT22;2428;48.732;9.148;2023-02-01T00:01:22;2.90;99.90
4828;DHT22;2428;48.732;9.148;2023-02-01T00:03:48;2.90;99.90
4828;DHT22;2428;48.732;9.148;2023-02-01T00:06:13;2.90;99.90
4828;DHT22;2428;48.732;9.148;2023-02-01T00:08:39;2.90;99.90
4828;DHT22;2428;48.732;9.148;2023-02-01T00:11:07;2.90;99.90
4828;DHT22;2428;48.732;9.148;2023-02-01T00:13:35;2.90;99.90
4828;DHT22;2428;48.732;9.148;2023-02-01T00:16:14;2.90;99.90
4828;DHT22;2428;48.732;9.148;2023-02-01T00:18:47;2.90;99.90
4828;DHT22;2428;48.732;9.148;2023-02-01T00:21:15;2.90;99.90
4828;DHT22;2428;48.732;9.148;2023-02-01T00:23:40;2.90;99.90
4828;DHT22;2428;48.732;9.148;2023-02-01T00:26:09;2.90;99.90
4828;DHT22;2428;48.732;9.148;2023-02-01T00:28:37;2.90;99.90
4828;DHT22;2428;48.732;9.148;2023-02-01T00:31:03;2.90;99.90
4828;DHT22;2428;48.732;9.148;2023-02-01T00:33:31;2.90;99.90
4828;DHT22;2428;48.732;9.148;2023-02-01T00:36:02;2.90;99.90
4828;DHT22;2428;48.732;9.148;2023-02-01T00:38:29;2.90;99.90
4828;DHT22;2428;48.732;9.148;2023-02-01T00:41:09;2.90;99.90
4828;DHT22;2428;48.732;9.148;2023-02-01T00:43:35;3.00;99.90
4828;DHT22;2428;48.732;9.148;2023-02-01T00:46:01;3.00;99.90
4828;DHT22;2428;48.732;9.148;2023-02-01T00:48:27;3.00;99.90
4828;DHT22;2428;48.732;9.148;2023-02-01T00:50:52;3.00;99.90
4828;DHT22;2428;48.732;9.148;2023-02-01T00:53:18;3.00;99.90
4828;DHT22;2428;48.732;9.148;2023-02-01T00:55:48;3.00;99.90
4828;DHT22;2428;48.732;9.148;2023-02-01T00:58:14;3.00;99.90
4828;DHT22;2428;48.732;9.148;2023-02-01T01:00:40;3.00;99.90
4828;DHT22;2428;48.732;9.148;2023-02-01T01:03:06;3.10;99.90
4828;DHT22;2428;48.732;9.148;2023-02-01T01:05:56;3.10;99.90
4828;DHT22;2428;48.732;9.148;2023-02-01T01:08:22;3.10;99.90
4828;DHT22;2428;48.732;9.148;2023-02-01T01:10:47;3.10;99.90
4828;DHT22;2428;48.732;9.148;2023-02-01T01:13:14;3.10;99.90
4828;DHT22;2428;48.732;9.148;2023-02-01T01:15:40;3.10;99.90
4828;DHT22;2428;48.732;9.148;2023-02-01T01:18:07;3.10;99.90
4828;DHT22;2428;48.732;9.148;2023-02-01T01:20:38;3.10;99.90
4828;DHT22;2428;48.732;9.148;2023-02-01T01:23:05;3.10;99.90
4828;DHT22;2428;48.732;9.148;2023-02-01T01:25:31;3.10;99.90
4828;DHT22;2428;48.732;9.148;2023-02-01T01:27:57;3.10;99.90
4828;DHT22;2428;48.732;9.148;2023-02-01T01:30:23;3.10;99.90
4828;DHT22;2428;48.732;9.148;2023-02-01T01:32:48;3.10;99.90
4828;DHT22;2428;48.732;9.148;2023-02-01T01:35:14;3.10;99.90
4828;DHT22;2428;48.732;9.148;2023-02-01T01:37:40;3.20;99.90
4828;DHT22;2428;48.732;9.148;2023-02-01T01:40:07;3.20;99.90
4828;DHT22;2428;48.732;9.148;2023-02-01T01:42:41;3.20;99.90
4828;DHT22;2428;48.732;9.148;2023-02-01T01:47:50;3.20;99.90
4828;DHT22;2428;48.732;9.148;2023-02-01T01:50:19;3.20;99.90
4828;DHT22;2428;48.732;9.148;2023-02-01T01:52:49;3.20;99.90
4828;DHT22;2428;48.732;9.148;2023-02-01T01:55:18;3.20;99.90
4828;DHT22;2428;48.732;9.148;2023-02-01T01:57:50;3.20;99.90
4828;DHT22;2428;48.732;9.148;2023-02-01T02:00:19;3.20;99.90
4828;DHT22;2428;48.732;9.148;2023-02-01T02:02:48;3.20;99.90
4828;DHT22;2428;48.732;9.148;2023-02-01T02:05:18;3.20;99.90
4828;DHT22;2428;48.732;9.148;2023-02-01T02:07:46;3.20;99.90
4828;DHT22;2428;48.732;9.148;2023-02-01T02:10:14;3.30;99.90
4828;DHT22;2428;48.732;9.148;2023-02-01T02:12:42;3.20;99.90
4828;DHT22;2428;48.732;9.148;2023-02-01T02:15:11;3.30;99.90
4828;DHT22;2428;48.732;9.148;2023-02-01T02:18:05;3.30;99.90
4828;DHT22;2428;48.732;9.148;2023-02-01T02:21:01;3.20;99.90
4828;DHT22;2428;48.732;9.148;2023-02-01T02:24:01;3.20;99.90
4828;DHT22;2428;48.732;9.148;2023-02-01T02:26:54;3.20;99.90
4828;DHT22;2428;48.732;9.148;2023-02-01T02:40:49;3.30;99.90
4828;DHT22;2428;48.732;9.148;2023-02-01T02:43:25;3.30;99.90
4828;DHT22;2428;48.732;9.148;2023-02-01T02:46:24;3.30;99.90
4828;DHT22;2428;48.732;9.148;2023-02-01T02:49:27;3.30;99.90
4828;DHT22;2428;48.732;9.148;2023-02-01T02:52:13;3.30;99.90
4828;DHT22;2428;48.732;9.148;2023-02-01T02:55:00;3.30;99.90
4828;DHT22;2428;48.732;9.148;2023-02-01T02:57:40;3.30;99.90
4828;DHT22;2428;48.732;9.148;2023-02-01T03:00:32;3.30;99.90
4828;DHT22;2428;48.732;9.148;2023-02-01T03:03:17;3.30;99.90
4828;DHT22;2428;48.732;9.148;2023-02-01T03:06:01;3.30;99.90
4828;DHT22;2428;48.732;9.148;2023-02-01T03:08:28;3.20;99.90
4828;DHT22;2428;48.732;9.148;2023-02-01T03:11:09;3.30;99.90
4828;DHT22;2428;48.732;9.148;2023-02-01T03:13:57;3.30;99.90
4828;DHT22;2428;48.732;9.148;2023-02-01T03:23:59;3.30;99.90
4828;DHT22;2428;48.732;9.148;2023-02-01T03:26:28;3.30;99.90
4828;DHT22;2428;48.732;9.148;2023-02-01T03:28:59;3.30;99.90
4828;DHT22;2428;48.732;9.148;2023-02-01T03:31:28;3.30;99.90
4828;DHT22;2428;48.732;9.148;2023-02-01T03:33:53;3.30;99.90
4828;DHT22;2428;48.732;9.148;2023-02-01T03:36:26;3.30;99.90
4828;DHT22;2428;48.732;9.148;2023-02-01T03:44:20;3.30;99.90
4828;DHT22;2428;48.732;9.148;2023-02-01T03:49:32;3.20;99.90
4828;DHT22;2428;48.732;9.148;2023-02-01T03:51:59;3.20;99.90
4828;DHT22;2428;48.732;9.148;2023-02-01T03:54:27;3.20;99.90
4828;DHT22;2428;48.732;9.148;2023-02-01T03:56:55;3.20;99.90
4828;DHT22;2428;48.732;9.148;2023-02-01T03:59:21;3.20;99.90
4828;DHT22;2428;48.732;9.148;2023-02-01T04:01:46;3.30;99.90
4828;DHT22;2428;48.732;9.148;2023-02-01T04:04:12;3.30;99.90
4828;DHT22;2428;48.732;9.148;2023-02-01T04:06:46;3.30;99.90
4828;DHT22;2428;48.732;9.148;2023-02-01T04:09:11;3.30;99.90
4828;DHT22;2428;48.732;9.148;2023-02-01T04:11:37;3.30;99.90
4828;DHT22;2428;48.732;9.148;2023-02-01T04:14:02;3.30;99.90
4828;DHT22;2428;48.732;9.148;2023-02-01T04:16:32;3.40;99.90
4828;DHT22;2428;48.732;9.148;2023-02-01T04:18:58;3.30;99.90
4828;DHT22;2428;48.732;9.148;2023-02-01T04:21:25;3.40;99.90
4828;DHT22;2428;48.732;9.148;2023-02-01T04:23:50;3.40;99.90
4828;DHT22;2428;48.732;9.148;2023-02-01T04:26:16;3.40;99.90
4828;DHT22;2428;48.732;9.148;2023-02-01T04:28:42;3.40;99.90
4828;DHT22;2428;48.732;9.148;2023-02-01T04:31:08;3.40;99.90
4828;DHT22;2428;48.732;9.148;2023-02-01T04:33:33;3.40;99.90
4828;DHT22;2428;48.732;9.148;2023-02-01T04:35:59;3.40;99.90
4828;DHT22;2428;48.732;9.148;2023-02-01T04:38:25;3.40;99.90
4828;DHT22;2428;48.732;9.148;2023-02-01T04:40:50;3.50;99.90
4828;DHT22;2428;48.732;9.148;2023-02-01T04:43:17;3.50;99.90
4828;DHT22;2428;48.732;9.148;2023-02-01T04:45:47;3.50;99.90
4828;DHT22;2428;48.732;9.148;2023-02-01T04:48:13;3.50;99.90
4828;DHT22;2428;48.732;9.148;2023-02-01T04:50:38;3.50;99.90
4828;DHT22;2428;48.732;9.148;2023-02-01T04:53:04;3.50;99.90
4828;DHT22;2428;48.732;9.148;2023-02-01T04:55:29;3.50;99.90
4828;DHT22;2428;48.732;9.148;2023-02-01T04:57:56;3.50;99.90
4828;DHT22;2428;48.732;9.148;2023-02-01T05:00:22;3.50;99.90
4828;DHT22;2428;48.732;9.148;2023-02-01T05:02:48;3.50;99.90
4828;DHT22;2428;48.732;9.148;2023-02-01T05:05:13;3.50;99.90
4828;DHT22;2428;48.732;9.148;2023-02-01T05:07:39;3.60;99.90
4828;DHT22;2428;48.732;9.148;2023-02-01T05:10:05;3.60;99.90
4828;DHT22;2428;48.732;9.148;2023-02-01T05:12:30;3.60;99.90
4828;DHT22;2428;48.732;9.148;2023-02-01T05:15:16;3.60;99.90
4828;DHT22;2428;48.732;9.148;2023-02-01T05:17:41;3.60;99.90
4828;DHT22;2428;48.732;9.148;2023-02-01T05:20:08;3.60;99.90
4828;DHT22;2428;48.732;9.148;2023-02-01T05:22:34;3.60;99.90
4828;DHT22;2428;48.732;9.148;2023-02-01T05:24:59;3.60;99.90
4828;DHT22;2428;48.732;9.148;2023-02-01T05:27:25;3.60;99.90
4828;DHT22;2428;48.732;9.148;2023-02-01T05:29:50;3.60;99.90
4828;DHT22;2428;48.732;9.148;2023-02-01T05:32:16;3.60;99.90
4828;DHT22;2428;48.732;9.148;2023-02-01T05:34:42;3.60;99.90
4828;DHT22;2428;48.732;9.148;2023-02-01T05:37:07;3.60;99.90
4828;DHT22;2428;48.732;9.148;2023-02-01T05:39:33;3.60;99.90
4828;DHT22;2428;48.732;9.148;2023-02-01T05:41:58;3.60;99.90
4828;DHT22;2428;48.732;9.148;2023-02-01T05:44:24;3.60;99.90
4828;DHT22;2428;48.732;9.148;2023-02-01T05:46:49;3.60;99.90
4828;DHT22;2428;48.732;9.148;2023-02-01T05:49:17;3.60;99.90
4828;DHT22;2428;48.732;9.148;2023-02-01T05:51:43;3.60;99.90
4828;DHT22;2428;48.732;9.148;2023-02-01T05:54:08;3.50;99.90
4828;DHT22;2428;48.732;9.148;2023-02-01T05:56:35;3.50;99.90
4828;DHT22;2428;48.732;9.148;2023-02-01T05:59:00;3.50;99.90
4828;DHT22;2428;48.732;9.148;2023-02-01T06:01:26;3.50;99.90
4828;DHT22;2428;48.732;9.148;2023-02-01T06:03:51;3.50;99.90
4828;DHT22;2428;48.732;9.148;2023-02-01T06:06:17;3.40;99.90
4828;DHT22;2428;48.732;9.148;2023-02-01T06:08:44;3.40;99.90
4828;DHT22;2428;48.732;9.148;2023-02-01T06:11:09;3.30;99.90
4828;DHT22;2428;48.732;9.148;2023-02-01T06:13:35;3.30;99.90
4828;DHT22;2428;48.732;9.148;2023-02-01T06:16:02;3.20;99.90
4828;DHT22;2428;48.732;9.148;2023-02-01T06:18:28;3.20;99.90
4828;DHT22;2428;48.732;9.148;2023-02-01T06:20:56;3.20;99.90
4828;DHT22;2428;48.732;9.148;2023-02-01T06:23:22;3.20;99.90
4828;DHT22;2428;48.732;9.148;2023-02-01T06:25:50;3.20;99.90
4828;DHT22;2428;48.732;9.148;2023-02-01T06:28:16;3.20;99.90
4828;DHT22;2428;48.732;9.148;2023-02-01T06:30:41;3.20;99.90
4828;DHT22;2428;48.732;9.148;2023-02-01T06:33:14;3.20;99.90
4828;DHT22;2428;48.732;9.148;2023-02-01T06:35:43;3.20;99.90
4828;DHT22;2428;48.732;9.148;2023-02-01T06:38:10;3.30;99.90
4828;DHT22;2428;48.732;9.148;2023-02-01T06:40:36;3.30;99.90
4828;DHT22;2428;48.732;9.148;2023-02-01T06:43:02;3.40;99.90
4828;DHT22;2428;48.732;9.148;2023-02-01T06:45:28;3.40;99.90
4828;DHT22;2428;48.732;9.148;2023-02-01T06:47:53;3.40;99.90
4828;DHT22;2428;48.732;9.148;2023-02-01T06:50:19;3.40;99.90
4828;DHT22;2428;48.732;9.148;2023-02-01T06:52:44;3.50;99.90
4828;DHT22;2428;48.732;9.148;2023-02-01T06:55:10;3.50;99.90
4828;DHT22;2428;48.732;9.148;2023-02-01T06:57:36;3.60;99.90
4828;DHT22;2428;48.732;9.148;2023-02-01T07:00:03;3.60;99.90
4828;DHT22;2428;48.732;9.148;2023-02-01T07:02:29;3.60;99.90
4828;DHT22;2428;48.732;9.148;2023-02-01T07:04:54;3.60;99.90
4828;DHT22;2428;48.732;9.148;2023-02-01T07:07:20;3.60;99.90
4828;DHT22;2428;48.732;9.148;2023-02-01T07:09:48;3.60;99.90
4828;DHT22;2428;48.732;9.148;2023-02-01T07:12:14;3.60;99.90
4828;DHT22;2428;48.732;9.148;2023-02-01T07:14:39;3.60;99.90
4828;DHT22;2428;48.732;9.148;2023-02-01T07:17:05;3.60;99.90
4828;DHT22;2428;48.732;9.148;2023-02-01T07:19:30;3.60;99.90
4828;DHT22;2428;48.732;9.148;2023-02-01T07:21:56;3.60;99.90
4828;DHT22;2428;48.732;9.148;2023-02-01T07:24:21;3.60;99.90
4828;DHT22;2428;48.732;9.148;2023-02-01T07:26:47;3.60;99.90
4828;DHT22;2428;48.732;9.148;2023-02-01T07:29:13;3.70;99.90
4828;DHT22;2428;48.732;9.148;2023-02-01T07:31:38;3.70;99.90
4828;DHT22;2428;48.732;9.148;2023-02-01T07:34:04;3.70;99.90
4828;DHT22;2428;48.732;9.148;2023-02-01T07:36:30;3.70;99.90
4828;DHT22;2428;48.732;9.148;2023-02-01T07:38:55;3.70;99.90
4828;DHT22;2428;48.732;9.148;2023-02-01T07:41:22;3.80;99.90
4828;DHT22;2428;48.732;9.148;2023-02-01T07:43:48;3.80;99.90
4828;DHT22;2428;48.732;9.148;2023-02-01T07:46:13;3.80;99.90
4828;DHT22;2428;48.732;9.148;2023-02-01T07:48:40;3.80;99.90
4828;DHT22;2428;48.732;9.148;2023-02-01T07:51:09;3.90;99.90
4828;DHT22;2428;48.732;9.148;2023-02-01T07:53:35;3.90;99.90
4828;DHT22;2428;48.732;9.148;2023-02-01T07:56:02;3.90;99.90
4828;DHT22;2428;48.732;9.148;2023-02-01T07:58:28;3.90;99.90
4828;DHT22;2428;48.732;9.148;2023-02-01T08:00:54;3.90;99.90
4828;DHT22;2428;48.732;9.148;2023-02-01T08:03:39;3.90;99.90
4828;DHT22;2428;48.732;9.148;2023-02-01T08:06:05;3.90;99.90
4828;DHT22;2428;48.732;9.148;2023-02-01T08:08:32;3.90;99.90
4828;DHT22;2428;48.732;9.148;2023-02-01T08:10:58;3.90;99.90
4828;DHT22;2428;48.732;9.148;2023-02-01T08:13:24;3.90;99.90
4828;DHT22;2428;48.732;9.148;2023-02-01T08:15:50;3.90;99.90
4828;DHT22;2428;48.732;9.148;2023-02-01T08:18:15;3.80;99.90
4828;DHT22;2428;48.732;9.148;2023-02-01T08:20:43;3.80;99.90
4828;DHT22;2428;48.732;9.148;2023-02-01T08:23:11;3.80;99.90
4828;DHT22;2428;48.732;9.148;2023-02-01T08:25:36;3.80;99.90
4828;DHT22;2428;48.732;9.148;2023-02-01T08:28:03;3.90;99.90
4828;DHT22;2428;48.732;9.148;2023-02-01T08:30:28;3.80;99.90
4828;DHT22;2428;48.732;9.148;2023-02-01T08:32:54;3.90;99.90
4828;DHT22;2428;48.732;9.148;2023-02-01T08:35:20;3.90;99.90
4828;DHT22;2428;48.732;9.148;2023-02-01T08:37:45;3.90;99.90
4828;DHT22;2428;48.732;9.148;2023-02-01T08:40:11;4.00;99.90
4828;DHT22;2428;48.732;9.148;2023-02-01T08:42:36;4.00;99.90
4828;DHT22;2428;48.732;9.148;2023-02-01T08:45:19;4.00;99.90
4828;DHT22;2428;48.732;9.148;2023-02-01T08:47:47;4.10;99.90
4828;DHT22;2428;48.732;9.148;2023-02-01T08:50:15;4.20;99.90
4828;DHT22;2428;48.732;9.148;2023-02-01T08:52:41;4.20;99.90
4828;DHT22;2428;48.732;9.148;2023-02-01T08:55:07;4.30;99.90
4828;DHT22;2428;48.732;9.148;2023-02-01T08:57:33;4.30;99.90
4828;DHT22;2428;48.732;9.148;2023-02-01T08:59:59;4.40;99.90
4828;DHT22;2428;48.732;9.148;2023-02-01T09:02:26;4.40;99.90
4828;DHT22;2428;48.732;9.148;2023-02-01T09:04:52;4.40;99.90
4828;DHT22;2428;48.732;9.148;2023-02-01T09:07:17;4.50;99.90
4828;DHT22;2428;48.732;9.148;2023-02-01T09:09:44;4.50;99.90
4828;DHT22;2428;48.732;9.148;2023-02-01T09:12:09;4.50;99.90
4828;DHT22;2428;48.732;9.148;2023-02-01T09:14:35;4.50;99.90
4828;DHT22;2428;48.732;9.148;2023-02-01T09:17:01;4.50;99.90
4828;DHT22;2428;48.732;9.148;2023-02-01T09:19:26;4.50;99.90
4828;DHT22;2428;48.732;9.148;2023-02-01T09:21:52;4.60;99.90
4828;DHT22;2428;48.732;9.148;2023-02-01T09:24:17;4.50;99.90
4828;DHT22;2428;48.732;9.148;2023-02-01T09:26:43;4.50;99.90
4828;DHT22;2428;48.732;9.148;2023-02-01T09:29:09;4.50;99.90
4828;DHT22;2428;48.732;9.148;2023-02-01T09:31:38;4.50;99.90
4828;DHT22;2428;48.732;9.148;2023-02-01T09:34:04;4.50;99.90
4828;DHT22;2428;48.732;9.148;2023-02-01T09:36:30;4.60;99.90
4828;DHT22;2428;48.732;9.148;2023-02-01T09:38:55;4.60;99.90
4828;DHT22;2428;48.732;9.148;2023-02-01T09:46:43;4.80;99.90
4828;DHT22;2428;48.732;9.148;2023-02-01T09:49:17;4.90;99.90
4828;DHT22;2428;48.732;9.148;2023-02-01T09:51:46;4.90;99.90
4828;DHT22;2428;48.732;9.148;2023-02-01T09:54:17;4.90;99.90
4828;DHT22;2428;48.732;9.148;2023-02-01T10:02:08;5.10;99.90
4828;DHT22;2428;48.732;9.148;2023-02-01T10:04:36;5.20;99.90
4828;DHT22;2428;48.732;9.148;2023-02-01T10:22:51;5.20;99.90
4828;DHT22;2428;48.732;9.148;2023-02-01T10:25:26;5.20;99.90
4828;DHT22;2428;48.732;9.148;2023-02-01T10:27:53;5.20;99.90
4828;DHT22;2428;48.732;9.148;2023-02-01T10:30:22;5.20;99.90
4828;DHT22;2428;48.732;9.148;2023-02-01T10:33:25;5.20;99.90
4828;DHT22;2428;48.732;9.148;2023-02-01T10:36:01;5.20;99.90
4828;DHT22;2428;48.732;9.148;2023-02-01T10:38:30;5.20;99.90
4828;DHT22;2428;48.732;9.148;2023-02-01T10:41:04;5.20;99.90
4828;DHT22;2428;48.732;9.148;2023-02-01T10:43:34;5.20;99.90
4828;DHT22;2428;48.732;9.148;2023-02-01T10:46:00;5.30;99.90
4828;DHT22;2428;48.732;9.148;2023-02-01T10:48:25;5.20;99.90
4828;DHT22;2428;48.732;9.148;2023-02-01T10:50:56;5.20;99.90
4828;DHT22;2428;48.732;9.148;2023-02-01T10:56:09;5.30;99.90
4828;DHT22;2428;48.732;9.148;2023-02-01T10:58:46;5.30;99.90
4828;DHT22;2428;48.732;9.148;2023-02-01T11:01:21;5.30;99.90
4828;DHT22;2428;48.732;9.148;2023-02-01T11:09:20;5.30;99.90
4828;DHT22;2428;48.732;9.148;2023-02-01T11:16:57;5.50;99.90
4828;DHT22;2428;48.732;9.148;2023-02-01T11:19:22;5.50;99.90
4828;DHT22;2428;48.732;9.148;2023-02-01T11:21:52;5.50;99.90
4828;DHT22;2428;48.732;9.148;2023-02-01T11:24:35;5.50;99.90
4828;DHT22;2428;48.732;9.148;2023-02-01T11:27:05;5.50;99.90
4828;DHT22;2428;48.732;9.148;2023-02-01T11:29:40;5.50;99.90
4828;DHT22;2428;48.732;9.148;2023-02-01T11:32:08;5.50;99.90
4828;DHT22;2428;48.732;9.148;2023-02-01T11:35:06;5.50;99.90
4828;DHT22;2428;48.732;9.148;2023-02-01T11:37:34;5.40;99.90
4828;DHT22;2428;48.732;9.148;2023-02-01T11:40:25;5.50;99.90
4828;DHT22;2428;48.732;9.148;2023-02-01T11:45:27;5.50;99.90
4828;DHT22;2428;48.732;9.148;2023-02-01T11:47:54;5.60;99.90
4828;DHT22;2428;48.732;9.148;2023-02-01T11:50:46;5.60;99.90
4828;DHT22;2428;48.732;9.148;2023-02-01T11:56:11;5.50;99.90
4828;DHT22;2428;48.732;9.148;2023-02-01T12:06:59;5.50;99.90
4828;DHT22;2428;48.732;9.148;2023-02-01T12:12:34;5.40;99.90
4828;DHT22;2428;48.732;9.148;2023-02-01T12:26:43;5.50;99.90
4828;DHT22;2428;48.732;9.148;2023-02-01T12:39:40;5.30;99.90
4828;DHT22;2428;48.732;9.148;2023-02-01T12:42:24;5.30;99.90
4828;DHT22;2428;48.732;9.148;2023-02-01T12:45:26;5.30;99.90
4828;DHT22;2428;48.732;9.148;2023-02-01T12:47:55;5.30;99.90
4828;DHT22;2428;48.732;9.148;2023-02-01T12:50:24;5.30;99.90
4828;DHT22;2428;48.732;9.148;2023-02-01T12:52:56;5.30;99.90
4828;DHT22;2428;48.732;9.148;2023-02-01T12:55:36;5.30;99.90
4828;DHT22;2428;48.732;9.148;2023-02-01T13:00:40;5.30;99.90
4828;DHT22;2428;48.732;9.148;2023-02-01T13:03:29;5.30;99.90
4828;DHT22;2428;48.732;9.148;2023-02-01T13:06:16;5.30;99.90
4828;DHT22;2428;48.732;9.148;2023-02-01T13:09:32;5.30;99.90
4828;DHT22;2428;48.732;9.148;2023-02-01T13:11:39;5.30;99.90
4828;DHT22;2428;48.732;9.148;2023-02-01T13:14:25;5.30;99.90
4828;DHT22;2428;48.732;9.148;2023-02-01T13:17:01;5.30;99.90
4828;DHT22;2428;48.732;9.148;2023-02-01T13:19:29;5.30;99.90
4828;DHT22;2428;48.732;9.148;2023-02-01T13:22:03;5.20;99.90
4828;DHT22;2428;48.732;9.148;2023-02-01T13:24:40;5.20;99.90
4828;DHT22;2428;48.732;9.148;2023-02-01T13:27:14;5.20;99.90
4828;DHT22;2428;48.732;9.148;2023-02-01T13:30:06;5.20;99.90
4828;DHT22;2428;48.732;9.148;2023-02-01T13:35:58;5.20;99.90
4828;DHT22;2428;48.732;9.148;2023-02-01T13:44:15;5.30;99.90
4828;DHT22;2428;48.732;9.148;2023-02-01T13:46:44;5.20;99.90
4828;DHT22;2428;48.732;9.148;2023-02-01T13:49:39;5.20;99.90
4828;DHT22;2428;48.732;9.148;2023-02-01T13:52:17;5.20;99.90
4828;DHT22;2428;48.732;9.148;2023-02-01T13:54:46;5.20;99.90
4828;DHT22;2428;48.732;9.148;2023-02-01T13:57:38;5.20;99.90
4828;DHT22;2428;48.732;9.148;2023-02-01T14:03:22;5.20;99.90
4828;DHT22;2428;48.732;9.148;2023-02-01T14:06:32;5.20;99.90
4828;DHT22;2428;48.732;9.148;2023-02-01T14:09:16;5.20;99.90
4828;DHT22;2428;48.732;9.148;2023-02-01T14:11:54;5.20;99.90
4828;DHT22;2428;48.732;9.148;2023-02-01T14:17:29;5.20;99.90
4828;DHT22;2428;48.732;9.148;2023-02-01T14:19:38;5.20;99.90
4828;DHT22;2428;48.732;9.148;2023-02-01T14:24:54;5.30;99.90
4828;DHT22;2428;48.732;9.148;2023-02-01T14:27:27;5.30;99.90
4828;DHT22;2428;48.732;9.148;2023-02-01T14:29:57;5.20;99.90
4828;DHT22;2428;48.732;9.148;2023-02-01T14:32:30;5.20;99.90
4828;DHT22;2428;48.732;9.148;2023-02-01T14:34:59;5.30;99.90
4828;DHT22;2428;48.732;9.148;2023-02-01T14:37:32;5.30;99.90
4828;DHT22;2428;48.732;9.148;2023-02-01T14:42:46;5.30;99.90
4828;DHT22;2428;48.732;9.148;2023-02-01T14:47:53;5.30;99.90
4828;DHT22;2428;48.732;9.148;2023-02-01T14:55:44;5.20;99.90
4828;DHT22;2428;48.732;9.148;2023-02-01T15:00:58;5.20;99.90
4828;DHT22;2428;48.732;9.148;2023-02-01T15:03:50;5.30;99.90
4828;DHT22;2428;48.732;9.148;2023-02-01T15:06:35;5.30;99.90
4828;DHT22;2428;48.732;9.148;2023-02-01T15:14:33;5.30;99.90
4828;DHT22;2428;48.732;9.148;2023-02-01T15:17:00;5.30;99.90
4828;DHT22;2428;48.732;9.148;2023-02-01T15:19:27;5.30;99.90
4828;DHT22;2428;48.732;9.148;2023-02-01T15:21:55;5.30;99.90
4828;DHT22;2428;48.732;9.148;2023-02-01T15:24:22;5.30;99.90
4828;DHT22;2428;48.732;9.148;2023-02-01T15:26:49;5.20;99.90
4828;DHT22;2428;48.732;9.148;2023-02-01T15:29:23;5.20;99.90
4828;DHT22;2428;48.732;9.148;2023-02-01T15:31:53;5.20;99.90
4828;DHT22;2428;48.732;9.148;2023-02-01T15:34:20;5.10;99.90
4828;DHT22;2428;48.732;9.148;2023-02-01T15:36:47;5.10;99.90
4828;DHT22;2428;48.732;9.148;2023-02-01T15:39:22;5.10;99.90
4828;DHT22;2428;48.732;9.148;2023-02-01T15:41:55;5.10;99.90
4828;DHT22;2428;48.732;9.148;2023-02-01T15:44:40;5.10;99.90
4828;DHT22;2428;48.732;9.148;2023-02-01T15:47:20;5.10;99.90
4828;DHT22;2428;48.732;9.148;2023-02-01T15:49:53;5.20;99.90
4828;DHT22;2428;48.732;9.148;2023-02-01T15:52:22;5.20;99.90
4828;DHT22;2428;48.732;9.148;2023-02-01T15:54:55;5.20;99.90
4828;DHT22;2428;48.732;9.148;2023-02-01T15:57:28;5.20;99.90
4828;DHT22;2428;48.732;9.148;2023-02-01T16:00:01;5.20;99.90
4828;DHT22;2428;48.732;9.148;2023-02-01T16:02:37;5.20;99.90
4828;DHT22;2428;48.732;9.148;2023-02-01T16:05:05;5.20;99.90
4828;DHT22;2428;48.732;9.148;2023-02-01T16:07:33;5.20;99.90
4828;DHT22;2428;48.732;9.148;2023-02-01T16:10:01;5.20;99.90
4828;DHT22;2428;48.732;9.148;2023-02-01T16:12:45;5.20;99.90
4828;DHT22;2428;48.732;9.148;2023-02-01T16:15:11;5.20;99.90
4828;DHT22;2428;48.732;9.148;2023-02-01T16:17:37;5.20;99.90
4828;DHT22;2428;48.732;9.148;2023-02-01T16:20:03;5.20;99.90
4828;DHT22;2428;48.732;9.148;2023-02-01T16:22:28;5.20;99.90
4828;DHT22;2428;48.732;9.148;2023-02-01T16:24:54;5.10;99.90
4828;DHT22;2428;48.732;9.148;2023-02-01T16:27:19;5.20;99.90
4828;DHT22;2428;48.732;9.148;2023-02-01T16:29:47;5.10;99.90
4828;DHT22;2428;48.732;9.148;2023-02-01T16:32:17;5.10;99.90
4828;DHT22;2428;48.732;9.148;2023-02-01T16:34:45;5.10;99.90
4828;DHT22;2428;48.732;9.148;2023-02-01T16:37:16;5.10;99.90
4828;DHT22;2428;48.732;9.148;2023-02-01T16:39:44;5.10;99.90
4828;DHT22;2428;48.732;9.148;2023-02-01T16:42:14;5.10;99.90
4828;DHT22;2428;48.732;9.148;2023-02-01T16:44:41;5.10;99.90
4828;DHT22;2428;48.732;9.148;2023-02-01T16:47:16;5.10;99.90
4828;DHT22;2428;48.732;9.148;2023-02-01T16:49:43;5.10;99.90
4828;DHT22;2428;48.732;9.148;2023-02-01T16:52:15;5.10;99.90
4828;DHT22;2428;48.732;9.148;2023-02-01T16:54:41;5.10;99.90
4828;DHT22;2428;48.732;9.148;2023-02-01T16:57:15;5.10;99.90
4828;DHT22;2428;48.732;9.148;2023-02-01T16:59:41;5.10;99.90
4828;DHT22;2428;48.732;9.148;2023-02-01T17:02:16;5.10;99.90
4828;DHT22;2428;48.732;9.148;2023-02-01T17:04:44;5.10;99.90
4828;DHT22;2428;48.732;9.148;2023-02-01T17:07:15;5.10;99.90
4828;DHT22;2428;48.732;9.148;2023-02-01T17:09:41;5.00;99.90
4828;DHT22;2428;48.732;9.148;2023-02-01T17:12:23;5.00;99.90
4828;DHT22;2428;48.732;9.148;2023-02-01T17:14:49;5.00;99.90
4828;DHT22;2428;48.732;9.148;2023-02-01T17:17:16;5.00;99.90
4828;DHT22;2428;48.732;9.148;2023-02-01T17:19:42;5.00;99.90
4828;DHT22;2428;48.732;9.148;2023-02-01T17:22:08;5.00;99.90
4828;DHT22;2428;48.732;9.148;2023-02-01T17:24:34;5.00;99.90
4828;DHT22;2428;48.732;9.148;2023-02-01T17:27:00;5.00;99.90
4828;DHT22;2428;48.732;9.148;2023-02-01T17:29:25;5.00;99.90
4828;DHT22;2428;48.732;9.148;2023-02-01T17:31:54;5.00;99.90
4828;DHT22;2428;48.732;9.148;2023-02-01T17:34:20;5.00;99.90
4828;DHT22;2428;48.732;9.148;2023-02-01T17:36:46;5.00;99.90
4828;DHT22;2428;48.732;9.148;2023-02-01T17:39:12;5.00;99.90
4828;DHT22;2428;48.732;9.148;2023-02-01T17:41:59;5.00;99.90
4828;DHT22;2428;48.732;9.148;2023-02-01T17:44:25;5.00;99.90
4828;DHT22;2428;48.732;9.148;2023-02-01T17:46:50;5.00;99.90
4828;DHT22;2428;48.732;9.148;2023-02-01T17:49:16;4.90;99.90
4828;DHT22;2428;48.732;9.148;2023-02-01T17:51:42;5.00;99.90
4828;DHT22;2428;48.732;9.148;2023-02-01T17:54:14;5.00;99.90
4828;DHT22;2428;48.732;9.148;2023-02-01T17:56:41;5.00;99.90
4828;DHT22;2428;48.732;9.148;2023-02-01T17:59:07;5.00;99.90
4828;DHT22;2428;48.732;9.148;2023-02-01T18:01:32;4.90;99.90
4828;DHT22;2428;48.732;9.148;2023-02-01T18:03:58;4.90;99.90
4828;DHT22;2428;48.732;9.148;2023-02-01T18:06:25;4.90;99.90
4828;DHT22;2428;48.732;9.148;2023-02-01T18:08:52;4.90;99.90
4828;DHT22;2428;48.732;9.148;2023-02-01T18:11:23;4.90;99.90
4828;DHT22;2428;48.732;9.148;2023-02-01T18:13:50;4.90;99.90
4828;DHT22;2428;48.732;9.148;2023-02-01T18:16:26;4.90;99.90
4828;DHT22;2428;48.732;9.148;2023-02-01T18:18:52;4.80;99.90
4828;DHT22;2428;48.732;9.148;2023-02-01T18:21:19;4.90;99.90
4828;DHT22;2428;48.732;9.148;2023-02-01T18:23:46;4.90;99.90
4828;DHT22;2428;48.732;9.148;2023-02-01T18:26:14;4.90;99.90
4828;DHT22;2428;48.732;9.148;2023-02-01T18:28:39;4.90;99.90
4828;DHT22;2428;48.732;9.148;2023-02-01T18:31:10;4.90;99.90
4828;DHT22;2428;48.732;9.148;2023-02-01T18:33:41;4.90;99.90
4828;DHT22;2428;48.732;9.148;2023-02-01T18:36:10;4.90;99.90
4828;DHT22;2428;48.732;9.148;2023-02-01T18:38:37;4.90;99.90
4828;DHT22;2428;48.732;9.148;2023-02-01T18:41:03;5.00;99.90
4828;DHT22;2428;48.732;9.148;2023-02-01T18:43:29;5.00;99.90
4828;DHT22;2428;48.732;9.148;2023-02-01T18:45:55;5.00;99.90
4828;DHT22;2428;48.732;9.148;2023-02-01T18:48:21;5.00;99.90
4828;DHT22;2428;48.732;9.148;2023-02-01T18:50:47;5.00;99.90
4828;DHT22;2428;48.732;9.148;2023-02-01T18:53:18;5.00;99.90
4828;DHT22;2428;48.732;9.148;2023-02-01T18:55:48;5.10;99.90
4828;DHT22;2428;48.732;9.148;2023-02-01T18:58:15;5.10;99.90
4828;DHT22;2428;48.732;9.148;2023-02-01T19:00:42;5.10;99.90
4828;DHT22;2428;48.732;9.148;2023-02-01T19:03:11;5.10;99.90